Klamath River, CA (96050)

4:04 PM PDT on March 31, 2015 (GMT -0700)
Siskiyou County | | Change Station
CLOSE
Current Station
Airport
Location: Montague,
Elevation: 2648 ft
Nearby Weather Stations
Active Advisory: Freeze Warning

Elev 2648 ft 41.78 °N, 122.47 °W | Updated 11 minutes ago

Partly Cloudy
Partly Cloudy
54 °F
Feels Like 54 °F
N
9
Wind Variable Wind from NW

Today
High -- | Low -- °F
--% Chance of Precip.
Yesterday
High -- | Low -- °F
Precip. -- in
6:55 AM 7:35 PM
Waxing Gibbous, 89% visible
Pressure 30.22 in
Visibility 10.0 miles
Clouds Scattered Clouds 7500 ft
Dew Point 24 °F
Humidity 31%
Rainfall 0.00 in
Snow Depth Not available.
UV 4 out of 12
Pollen 6.50 out of 12
Air Quality Not available.
Flu Activity Not available.
METAR KSIY 312253Z AUTO 31008KT 10SM SCT075 12/M04 A3018 RMK AO2 PK WND 34027/2203 SLP231 T01221044

More Conditions Fewer Conditions

Pressure 30.22 in
Visibility 10.0 miles
Clouds Scattered Clouds 7500 ft
Dew Point 24 °F
Humidity 31%
Rainfall 0.00 in
Snow Depth Not available.
UV 4 out of 12
Pollen 6.50 out of 12
Air Quality Not available.
Flu Activity Not available.
METAR KSIY 312253Z AUTO 31008KT 10SM SCT075 12/M04 A3018 RMK AO2 PK WND 34027/2203 SLP231 T01221044

More Conditions Fewer Conditions

10-Day Weather Forecast

Almanac

Astronomy

Mar. 31, 2015 Rise Set
Actual Time
Civil Twilight
Nautical Twilight
Astronomical Twilight
Moon
Length of Visible Light
Length of Day
Tomorrow will be .
, % of the Moon is Illuminated

Today's Extremes

State Highs State Lows

Community

WunderPhotos

Upload Photos

1,809,870 photos uploaded!

WunderBlogs® & News

Nearby

Air Quality

  Air Quality AQ Index Pollutant
Not available.

Snow Depth

Station Depth Elevation

Earthquake Activity

City Distance Mag. Time & Date
Minimum magnitude displayed is 2.5.

Coastal Water Temperatures

Place Temperature

Stations

Nearby Weather Stations

Station Location Temp. Windchill Dew Point Humidity Wind Precip. Elev Updated Type
                   
Freeze Warning
Statement as of 2:46 PM PDT on March 31, 2015

... Freeze warning in effect from 1 am to 9 am PDT Wednesday...

The National Weather Service in Medford has issued a freeze
warning... which is in effect from 1 am to 9 am PDT Wednesday. The
freeze watch is no longer in effect.

* Low temperatures: 26 to 30 degrees.

* Temperature inversion: none expected.

* Timing: 1 am PDT to 9 am PDT.

* Locations include: Weed and outlying areas of the Shasta
Valley.

* View the hazard area in detail at
http://weather.Gov/Medford/hazard

* impacts: there will be a cold and persistent air mass that will
bring the possibility of temperatures that could damage
sensitive vegetation each morning through Friday. The current
indications are that Friday will be the coldest morning.

Precautionary/preparedness actions...

A freeze warning means sub-freezing temperatures are imminent or
highly likely. These conditions will kill crops and other
sensitive vegetation.